Terminal Aerodrome Forecast
Issued by NWS Milwaukee/Sullivan, WI

Home | Current Version | Previous Version | Text Only | Print | Product List | Glossary On
Versions: 1 2 3 4 5 6 7 8 9 10 11 12 13 14 15 16 17 18 19 20
000
FTUS43 KMKX 241120
TAFMSN
TAF
KMSN 241120Z 2412/2512 20011KT P6SM SCT120 WS020/23045KT
     FM241500 21014G22KT P6SM SCT120 WS020/23045KT
     FM241800 21018G30KT P6SM FEW150 FEW250
     FM250000 25009KT P6SM SCT070 BKN120
     FM250300 30012KT P6SM SCT120=

USA.gov is the U.S. government's official web portal to all federal, state and local government web resources and services.